createdAt,value
2022-08-20T00:03:20.106Z,97.62
2022-08-20T00:08:22.616Z,98.32
2022-08-20T00:13:32.331Z,98.11
2022-08-20T00:18:36.995Z,98.53
2022-08-20T00:23:46.654Z,98.44
2022-08-20T00:28:52.953Z,98.63
2022-08-20T00:33:54.744Z,98.67
2022-08-20T00:39:01.275Z,99.06
2022-08-20T00:44:25.541Z,99.27
2022-08-20T00:49:32.556Z,99.90
2022-08-20T00:54:47.176Z,100.00
2022-08-20T00:59:55.139Z,99.85
2022-08-20T01:04:59.372Z,100.00
2022-08-20T01:10:09.547Z,100.00
2022-08-20T01:15:17.191Z,100.00
2022-08-20T01:20:20.550Z,100.00
2022-08-20T01:26:02.717Z,100.00
2022-08-20T01:31:13.512Z,100.00
2022-08-20T01:36:18.263Z,100.00
2022-08-20T01:41:33.166Z,100.00
2022-08-20T01:46:38.933Z,100.00
2022-08-20T01:51:47.025Z,100.00
2022-08-20T01:57:01.047Z,100.00
2022-08-20T02:02:08.782Z,100.00
2022-08-20T02:07:21.394Z,100.00
2022-08-20T02:12:23.159Z,100.00
2022-08-20T02:17:28.147Z,100.00
2022-08-20T02:22:38.037Z,100.00
2022-08-20T02:27:46.124Z,100.00
2022-08-20T02:32:48.275Z,100.00
2022-08-20T02:37:57.686Z,100.00
2022-08-20T02:43:03.407Z,100.00
2022-08-20T02:48:07.624Z,100.00
2022-08-20T02:53:11.750Z,100.00
2022-08-20T02:58:20.080Z,100.00
2022-08-20T03:03:22.811Z,100.00
2022-08-20T03:08:29.317Z,100.00
2022-08-20T03:13:33.288Z,100.00
2022-08-20T03:18:38.351Z,100.00
2022-08-20T03:23:45.395Z,100.00
2022-08-20T03:28:50.196Z,100.00
2022-08-20T03:33:55.296Z,100.00
2022-08-20T03:38:59.163Z,100.00
2022-08-20T03:44:00.902Z,100.00
2022-08-20T03:49:08.394Z,100.00
2022-08-20T03:54:12.296Z,100.00
2022-08-20T03:59:18.726Z,100.00
2022-08-20T04:04:22.771Z,100.00
2022-08-20T04:09:24.546Z,100.00
2022-08-20T04:14:32.725Z,100.00
2022-08-20T04:19:36.843Z,100.00
2022-08-20T04:24:38.622Z,100.00
2022-08-20T04:29:45.866Z,100.00
2022-08-20T04:34:52.287Z,100.00
2022-08-20T04:40:21.479Z,100.00
2022-08-20T04:45:25.859Z,100.00
2022-08-20T04:50:27.590Z,100.00
2022-08-20T04:55:31.814Z,100.00
2022-08-20T05:00:39.844Z,100.00
2022-08-20T05:05:50.312Z,100.00
2022-08-20T05:11:06.911Z,100.00
2022-08-20T05:16:20.274Z,100.00
2022-08-20T05:21:24.414Z,100.00
2022-08-20T05:26:29.383Z,100.00
2022-08-20T05:31:36.450Z,100.00
2022-08-20T05:36:53.000Z,100.00
2022-08-20T05:41:57.139Z,100.00
2022-08-20T05:47:04.209Z,100.00
2022-08-20T05:52:06.226Z,100.00
2022-08-20T05:57:14.030Z,100.00
2022-08-20T06:02:34.780Z,100.00
2022-08-20T06:07:39.543Z,100.00
2022-08-20T06:12:44.438Z,98.45
2022-08-20T06:17:46.203Z,98.20
2022-08-20T06:23:00.209Z,97.13
2022-08-20T06:28:03.276Z,94.94
2022-08-20T06:33:07.528Z,92.38
2022-08-20T06:38:18.572Z,90.13
2022-08-20T06:43:20.356Z,89.73
2022-08-20T06:48:29.860Z,87.92
2022-08-20T06:53:33.925Z,86.91
2022-08-20T06:58:38.890Z,84.98
2022-08-20T07:03:55.431Z,83.89
2022-08-20T07:09:02.775Z,83.34
2022-08-20T07:14:09.512Z,82.83
2022-08-20T07:19:15.798Z,82.04
2022-08-20T07:24:20.222Z,79.06
2022-08-20T07:29:44.333Z,77.27
2022-08-20T07:34:48.424Z,76.48
2022-08-20T07:39:50.925Z,76.13
2022-08-20T07:44:52.873Z,73.84
2022-08-20T07:49:54.734Z,73.33
2022-08-20T07:54:59.241Z,72.08
2022-08-20T08:00:04.510Z,71.15
2022-08-20T08:05:10.910Z,70.42
2022-08-20T08:10:22.445Z,70.67
2022-08-20T08:15:29.576Z,68.27
2022-08-20T08:20:46.780Z,68.66
2022-08-20T08:25:57.326Z,67.19
2022-08-20T08:31:05.969Z,68.44
2022-08-20T08:36:15.653Z,67.19
2022-08-20T08:41:19.692Z,66.16
2022-08-20T08:46:26.734Z,66.76
2022-08-20T08:52:01.528Z,66.77
2022-08-20T08:57:09.632Z,66.74
2022-08-20T09:02:23.227Z,68.41
2022-08-20T09:07:32.485Z,67.90
2022-08-20T09:12:37.361Z,68.15
2022-08-20T09:17:46.457Z,67.00
2022-08-20T09:22:48.276Z,66.51
2022-08-20T09:27:57.629Z,66.27
2022-08-20T09:33:05.928Z,64.89
2022-08-20T09:38:10.390Z,64.35
2022-08-20T09:43:12.305Z,64.98
2022-08-20T09:48:16.669Z,65.33
2022-08-20T09:53:24.155Z,64.16
2022-08-20T09:58:38.413Z,62.15
2022-08-20T10:03:48.024Z,61.18
2022-08-20T10:08:53.346Z,60.90
2022-08-20T10:13:56.218Z,60.31
2022-08-20T10:19:00.772Z,59.75
2022-08-20T10:24:06.552Z,58.76
2022-08-20T10:29:11.152Z,58.51
2022-08-20T10:34:13.073Z,58.46
2022-08-20T10:39:19.259Z,60.39
2022-08-20T10:44:23.413Z,57.67
2022-08-20T10:49:28.116Z,57.46
2022-08-20T10:54:33.524Z,56.57
2022-08-20T10:59:40.477Z,56.39
2022-08-20T11:04:48.031Z,54.33
2022-08-20T11:09:55.213Z,54.91
2022-08-20T11:14:56.984Z,54.06
2022-08-20T11:19:59.270Z,53.75
2022-08-20T11:25:04.816Z,53.02
2022-08-20T11:30:10.065Z,52.82
2022-08-20T11:35:41.243Z,52.09
2022-08-20T11:40:33.934Z,53.27
2022-08-20T11:45:38.156Z,52.95
2022-08-20T11:50:39.909Z,50.35
2022-08-20T11:55:44.823Z,51.46
2022-08-20T12:00:51.675Z,51.34
2022-08-20T12:05:58.015Z,49.71
2022-08-20T12:11:02.256Z,49.47
2022-08-20T12:16:06.046Z,50.50
2022-08-20T12:21:07.817Z,49.66
2022-08-20T12:26:16.715Z,49.55
2022-08-20T12:31:18.436Z,48.80
2022-08-20T12:36:22.494Z,47.16
2022-08-20T12:41:24.256Z,47.46
2022-08-20T12:46:26.028Z,48.06
2022-08-20T12:51:28.818Z,48.85
2022-08-20T12:56:33.174Z,47.71
2022-08-20T13:01:37.794Z,48.03
2022-08-20T13:06:47.060Z,46.70
2022-08-20T13:11:49.272Z,49.00
2022-08-20T13:16:58.413Z,49.62
2022-08-20T13:22:05.907Z,49.77
2022-08-20T13:27:16.913Z,48.45
2022-08-20T13:32:21.712Z,49.12
2022-08-20T13:37:28.030Z,47.38
2022-08-20T13:42:29.711Z,43.81
2022-08-20T13:47:41.237Z,46.14
2022-08-20T13:52:43.663Z,46.15
2022-08-20T13:57:53.591Z,46.52
2022-08-20T14:02:55.746Z,48.10
2022-08-20T14:08:06.204Z,47.10
2022-08-20T14:13:15.728Z,44.63
2022-08-20T14:18:20.828Z,44.52
2022-08-20T14:23:22.659Z,47.51
2022-08-20T14:28:24.899Z,49.09
2022-08-20T14:33:28.861Z,49.46
2022-08-20T14:38:35.084Z,50.61
2022-08-20T14:43:40.812Z,47.03
2022-08-20T14:48:44.920Z,46.95
2022-08-20T14:53:55.051Z,45.11
2022-08-20T14:58:59.099Z,45.49
2022-08-20T15:04:00.932Z,41.51
2022-08-20T15:09:03.621Z,38.77
2022-08-20T15:14:10.528Z,39.20
2022-08-20T15:19:15.274Z,37.12
2022-08-20T15:24:19.480Z,35.55
2022-08-20T15:29:26.045Z,35.75
2022-08-20T15:34:37.838Z,37.79
2022-08-20T15:39:40.829Z,36.72
2022-08-20T15:44:45.525Z,36.17
2022-08-20T15:49:49.430Z,34.57
2022-08-20T15:54:56.508Z,33.33
2022-08-20T16:00:13.923Z,32.33
2022-08-20T16:05:37.039Z,31.93
2022-08-20T16:11:03.917Z,31.92
2022-08-20T16:16:14.711Z,30.84
2022-08-20T16:21:28.454Z,32.57
2022-08-20T16:26:51.977Z,32.90
2022-08-20T16:32:01.939Z,32.80
2022-08-20T16:37:28.912Z,32.67
2022-08-20T16:42:37.855Z,35.41
2022-08-20T16:47:42.938Z,38.71
2022-08-20T16:52:47.321Z,40.37
2022-08-20T16:57:53.056Z,42.01
2022-08-20T17:03:09.183Z,43.35
2022-08-20T17:08:22.879Z,44.09
2022-08-20T17:13:34.357Z,46.20
2022-08-20T17:18:43.554Z,47.68
2022-08-20T17:23:56.300Z,47.66
2022-08-20T17:29:00.939Z,48.52
2022-08-20T17:34:05.084Z,49.97
2022-08-20T17:39:18.310Z,50.25
2022-08-20T17:44:34.618Z,51.74
2022-08-20T17:49:43.597Z,53.04
2022-08-20T17:55:07.428Z,53.55
2022-08-20T18:00:16.345Z,56.02
2022-08-20T18:05:20.205Z,54.45
2022-08-20T18:10:27.481Z,55.08
2022-08-20T18:15:37.571Z,57.68
2022-08-20T18:21:11.747Z,56.88
2022-08-20T18:26:20.782Z,58.19
2022-08-20T18:31:40.907Z,60.44
2022-08-20T18:36:57.326Z,60.55
2022-08-20T18:42:07.390Z,61.97
2022-08-20T18:47:41.471Z,62.00
2022-08-20T18:53:05.211Z,62.45
2022-08-20T18:58:15.147Z,63.70
2022-08-20T19:03:46.114Z,64.11
2022-08-20T19:08:52.826Z,65.32
2022-08-20T19:14:07.418Z,66.00
2022-08-20T19:19:23.848Z,66.77
2022-08-20T19:24:30.571Z,67.53
2022-08-20T19:29:42.364Z,68.17
2022-08-20T19:35:01.007Z,68.93
2022-08-20T19:40:19.956Z,69.65
2022-08-20T19:45:32.761Z,69.42
2022-08-20T19:50:59.306Z,70.00
2022-08-20T19:56:13.479Z,70.96
2022-08-20T20:01:22.873Z,70.85
2022-08-20T20:06:33.906Z,72.25
2022-08-20T20:11:43.054Z,71.79
2022-08-20T20:16:45.884Z,72.71
2022-08-20T20:21:53.730Z,72.44
2022-08-20T20:26:59.353Z,72.60
2022-08-20T20:32:17.114Z,72.76
2022-08-20T20:37:49.571Z,73.11
2022-08-20T20:43:09.999Z,72.65
2022-08-20T20:48:20.160Z,73.47
2022-08-20T20:53:40.269Z,72.30
2022-08-20T20:58:55.531Z,72.79
2022-08-20T21:03:59.817Z,73.29
2022-08-20T21:09:01.609Z,74.47
2022-08-20T21:14:05.787Z,74.68
2022-08-20T21:19:12.128Z,75.53
2022-08-20T21:24:17.271Z,75.71
2022-08-20T21:29:29.298Z,75.84
2022-08-20T21:34:38.526Z,76.70
2022-08-20T21:39:44.003Z,77.15
2022-08-20T21:44:49.674Z,76.99
2022-08-20T21:49:56.198Z,76.65
2022-08-20T21:54:59.892Z,77.01
2022-08-20T22:00:27.366Z,78.25
2022-08-20T22:05:31.591Z,78.74
2022-08-20T22:10:35.987Z,78.52
2022-08-20T22:15:39.596Z,78.62
2022-08-20T22:20:41.453Z,79.44
2022-08-20T22:25:45.381Z,79.14
2022-08-20T22:30:49.448Z,79.45
2022-08-20T22:35:53.518Z,79.08
2022-08-20T22:40:57.528Z,79.17
2022-08-20T22:46:04.304Z,79.18
2022-08-20T22:51:06.122Z,79.82
2022-08-20T22:56:19.686Z,79.88
2022-08-20T23:01:24.270Z,80.61
2022-08-20T23:06:29.498Z,80.00
2022-08-20T23:11:31.260Z,81.11
2022-08-20T23:16:39.331Z,80.58
2022-08-20T23:21:41.072Z,80.71
2022-08-20T23:26:53.149Z,80.97
2022-08-20T23:31:57.655Z,81.41
2022-08-20T23:37:00.554Z,81.30
2022-08-20T23:42:05.426Z,81.80
2022-08-20T23:47:24.791Z,82.34
2022-08-20T23:52:28.856Z,81.70
2022-08-20T23:57:35.399Z,82.46
